createdAt,value
2023-05-01T00:00:16.336Z,831.00
2023-05-01T00:01:16.332Z,812.00
2023-05-01T00:02:16.419Z,830.00
2023-05-01T00:03:16.406Z,833.00
2023-05-01T00:04:16.530Z,846.00
2023-05-01T00:05:16.325Z,875.00
2023-05-01T00:06:16.347Z,918.00
2023-05-01T00:07:16.376Z,833.00
2023-05-01T00:08:16.324Z,772.00
2023-05-01T00:09:16.324Z,775.00
2023-05-01T00:10:16.367Z,745.00
2023-05-01T00:11:16.351Z,759.00
2023-05-01T00:12:16.341Z,733.00
2023-05-01T00:13:16.328Z,738.00
2023-05-01T00:14:16.340Z,739.00
2023-05-01T00:15:16.334Z,781.00
2023-05-01T00:16:16.343Z,808.00
2023-05-01T00:17:16.391Z,841.00
2023-05-01T00:18:16.362Z,920.00
2023-05-01T00:19:16.322Z,940.00
2023-05-01T00:20:16.344Z,951.00
2023-05-01T00:21:16.325Z,969.00
2023-05-01T00:22:16.342Z,955.00
2023-05-01T00:23:16.340Z,996.00
2023-05-01T00:24:16.373Z,961.00
2023-05-01T00:25:16.334Z,934.00
2023-05-01T00:26:16.350Z,962.00
2023-05-01T00:27:16.353Z,957.00
2023-05-01T00:28:16.333Z,1035.00
2023-05-01T00:29:16.322Z,1028.00
2023-05-01T00:30:16.324Z,1051.00
2023-05-01T00:31:16.347Z,1067.00
2023-05-01T00:32:16.451Z,1086.00
2023-05-01T00:33:16.365Z,1115.00
2023-05-01T00:34:16.311Z,1108.00
2023-05-01T00:35:16.336Z,1078.00
2023-05-01T00:36:16.333Z,1056.00
2023-05-01T00:37:16.343Z,1031.00
2023-05-01T00:38:16.314Z,1010.00
2023-05-01T00:39:16.318Z,1024.00
2023-05-01T00:40:16.340Z,1011.00
2023-05-01T00:41:16.316Z,1026.00
2023-05-01T00:42:16.344Z,1034.00
2023-05-01T00:43:16.317Z,1043.00
2023-05-01T00:44:16.321Z,1004.00
2023-05-01T00:45:16.326Z,996.00
2023-05-01T00:46:16.369Z,981.00
2023-05-01T00:47:16.330Z,1008.00
2023-05-01T00:48:16.345Z,1036.00
2023-05-01T00:49:16.317Z,1060.00
2023-05-01T00:50:16.332Z,1087.00
2023-05-01T00:51:16.318Z,1099.00
2023-05-01T00:52:16.318Z,1061.00
2023-05-01T00:53:16.339Z,1061.00
2023-05-01T00:54:16.337Z,1048.00
2023-05-01T00:55:16.334Z,1044.00
2023-05-01T00:56:16.323Z,1031.00
2023-05-01T00:57:16.331Z,1063.00
2023-05-01T00:58:16.334Z,1048.00
2023-05-01T00:59:16.328Z,1059.00
2023-05-01T01:00:16.321Z,1047.00
2023-05-01T01:01:16.401Z,1052.00
2023-05-01T01:02:16.344Z,1050.00
2023-05-01T01:03:16.326Z,1069.00
2023-05-01T01:04:16.370Z,1061.00
2023-05-01T01:05:16.329Z,1037.00
2023-05-01T01:06:16.396Z,1097.00
2023-05-01T01:07:16.345Z,1103.00
2023-05-01T01:08:16.333Z,1064.00
2023-05-01T01:09:16.335Z,1053.00
2023-05-01T01:10:16.356Z,1038.00
2023-05-01T01:11:16.330Z,1007.00
2023-05-01T01:12:16.344Z,1002.00
2023-05-01T01:13:16.365Z,1004.00
2023-05-01T01:14:16.335Z,1002.00
2023-05-01T01:15:16.372Z,1019.00
2023-05-01T01:16:16.390Z,1036.00
2023-05-01T01:17:16.493Z,1082.00
2023-05-01T01:18:16.358Z,1031.00
2023-05-01T01:19:16.364Z,1025.00
2023-05-01T01:20:16.374Z,1020.00
2023-05-01T01:21:16.363Z,1033.00
2023-05-01T01:22:16.366Z,1084.00
2023-05-01T01:23:16.371Z,1102.00
2023-05-01T01:24:16.358Z,1072.00
2023-05-01T01:25:16.413Z,1035.00
2023-05-01T01:26:16.371Z,1028.00
2023-05-01T01:27:16.368Z,994.00
2023-05-01T01:28:16.365Z,954.00
2023-05-01T01:29:16.363Z,970.00
2023-05-01T01:30:16.380Z,1017.00
2023-05-01T01:31:16.443Z,1065.00
2023-05-01T01:32:16.405Z,1072.00
2023-05-01T01:33:16.341Z,1064.00
2023-05-01T01:34:16.364Z,1044.00
2023-05-01T01:35:16.407Z,1029.00
2023-05-01T01:36:16.368Z,1036.00
2023-05-01T01:37:16.385Z,1030.00
2023-05-01T01:38:16.373Z,1071.00
2023-05-01T01:39:16.367Z,1041.00
2023-05-01T01:40:16.385Z,998.00
2023-05-01T01:41:16.360Z,975.00
2023-05-01T01:42:16.368Z,976.00
2023-05-01T01:43:16.384Z,941.00
2023-05-01T01:44:16.413Z,944.00
2023-05-01T01:45:16.404Z,929.00
2023-05-01T01:46:16.387Z,912.00
2023-05-01T01:47:16.392Z,933.00
2023-05-01T01:48:16.441Z,966.00
2023-05-01T01:49:16.586Z,1038.00
2023-05-01T01:50:16.396Z,1007.00
2023-05-01T01:51:16.408Z,976.00
2023-05-01T01:52:16.429Z,958.00
2023-05-01T01:53:16.411Z,966.00
2023-05-01T01:54:16.420Z,955.00
2023-05-01T01:55:16.432Z,947.00
2023-05-01T01:56:16.453Z,940.00
2023-05-01T01:57:16.447Z,951.00
2023-05-01T01:58:16.446Z,918.00
2023-05-01T01:59:16.471Z,942.00
2023-05-01T02:00:16.482Z,953.00
2023-05-01T02:01:16.507Z,1036.00
2023-05-01T02:02:16.481Z,1052.00
2023-05-01T02:03:16.538Z,1050.00
2023-05-01T02:04:16.571Z,1009.00
2023-05-01T02:05:16.613Z,966.00
2023-05-01T02:06:16.521Z,961.00
2023-05-01T02:07:16.510Z,932.00
2023-05-01T02:08:16.511Z,937.00
2023-05-01T02:09:16.521Z,929.00
2023-05-01T02:10:16.515Z,971.00
2023-05-01T02:11:16.531Z,1006.00
2023-05-01T02:12:16.534Z,999.00
2023-05-01T02:13:16.539Z,960.00
2023-05-01T02:14:16.521Z,980.00
2023-05-01T02:15:16.536Z,984.00
2023-05-01T02:16:16.535Z,999.00
2023-05-01T02:17:16.537Z,964.00
2023-05-01T02:18:16.520Z,989.00
2023-05-01T02:19:16.545Z,1062.00
2023-05-01T02:20:16.523Z,1104.00
2023-05-01T02:21:16.539Z,1096.00
2023-05-01T02:22:16.554Z,1112.00
2023-05-01T02:23:16.536Z,1141.00
2023-05-01T02:24:16.558Z,1171.00
2023-05-01T02:25:16.610Z,1204.00
2023-05-01T02:26:16.563Z,1240.00
2023-05-01T02:27:16.575Z,1261.00
2023-05-01T02:28:16.569Z,1260.00
2023-05-01T02:29:16.583Z,1266.00
2023-05-01T02:30:16.588Z,1272.00
2023-05-01T02:31:16.628Z,1274.00
2023-05-01T02:32:16.594Z,1296.00
2023-05-01T02:33:16.588Z,1302.00
2023-05-01T02:34:16.606Z,1312.00
2023-05-01T02:35:16.606Z,1302.00
2023-05-01T02:36:16.619Z,1311.00
2023-05-01T02:37:16.612Z,1307.00
2023-05-01T02:38:16.643Z,1307.00
2023-05-01T02:39:16.635Z,1307.00
2023-05-01T02:40:16.635Z,1297.00
2023-05-01T02:41:16.638Z,1294.00
2023-05-01T02:42:16.639Z,1250.00
2023-05-01T02:43:16.622Z,1245.00
2023-05-01T02:44:16.627Z,1267.00
2023-05-01T02:45:16.657Z,1255.00
2023-05-01T02:46:16.684Z,1219.00
2023-05-01T02:47:16.703Z,1214.00
2023-05-01T02:48:16.666Z,1236.00
2023-05-01T02:49:16.648Z,1219.00
2023-05-01T02:50:16.658Z,1217.00
2023-05-01T02:51:16.675Z,1193.00
2023-05-01T02:52:16.686Z,1204.00
2023-05-01T02:53:16.701Z,1210.00
2023-05-01T02:54:16.683Z,1199.00
2023-05-01T02:55:16.675Z,1231.00
2023-05-01T02:56:16.685Z,1251.00
2023-05-01T02:57:16.700Z,1213.00
2023-05-01T02:58:16.717Z,1202.00
2023-05-01T02:59:16.702Z,1174.00
2023-05-01T03:00:16.730Z,1176.00
2023-05-01T03:01:16.767Z,1174.00
2023-05-01T03:02:16.717Z,1146.00
2023-05-01T03:03:16.760Z,1124.00
2023-05-01T03:04:16.808Z,1131.00
2023-05-01T03:05:16.727Z,1105.00
2023-05-01T03:06:16.781Z,1133.00
2023-05-01T03:07:16.741Z,1132.00
2023-05-01T03:08:16.733Z,1131.00
2023-05-01T03:09:16.750Z,1124.00
2023-05-01T03:10:16.757Z,1152.00
2023-05-01T03:11:16.748Z,1142.00
2023-05-01T03:12:16.764Z,1160.00
2023-05-01T03:13:16.784Z,1187.00
2023-05-01T03:14:16.784Z,1171.00
2023-05-01T03:15:16.791Z,1186.00
2023-05-01T03:16:16.818Z,1184.00
2023-05-01T03:17:16.787Z,1181.00
2023-05-01T03:18:16.794Z,1203.00
2023-05-01T03:19:16.802Z,1206.00
2023-05-01T03:20:16.808Z,1222.00
2023-05-01T03:21:16.812Z,1231.00
2023-05-01T03:22:16.845Z,1235.00
2023-05-01T03:23:16.862Z,1243.00
2023-05-01T03:24:16.843Z,1234.00
2023-05-01T03:25:16.865Z,1243.00
2023-05-01T03:26:16.881Z,1246.00
2023-05-01T03:27:16.944Z,1260.00
2023-05-01T03:28:16.906Z,1271.00
2023-05-01T03:29:16.929Z,1299.00
2023-05-01T03:30:16.908Z,1270.00
2023-05-01T03:31:16.937Z,1272.00
2023-05-01T03:32:17.001Z,1282.00
2023-05-01T03:33:16.911Z,1293.00
2023-05-01T03:34:16.920Z,1279.00
2023-05-01T03:35:16.980Z,1284.00
2023-05-01T03:36:16.944Z,1267.00
2023-05-01T03:37:16.951Z,1264.00
2023-05-01T03:38:16.969Z,1251.00
2023-05-01T03:39:16.956Z,1223.00
2023-05-01T03:40:16.962Z,1230.00
2023-05-01T03:41:16.974Z,1200.00
2023-05-01T03:42:16.970Z,1206.00
2023-05-01T03:43:16.964Z,1209.00
2023-05-01T03:44:16.977Z,1204.00
2023-05-01T03:45:16.984Z,1199.00
2023-05-01T03:46:17.029Z,1204.00
2023-05-01T03:47:16.977Z,1225.00
2023-05-01T03:48:17.030Z,1212.00
2023-05-01T03:49:16.987Z,1197.00
2023-05-01T03:50:16.990Z,1197.00
2023-05-01T03:51:16.988Z,1193.00
2023-05-01T03:52:17.019Z,1229.00
2023-05-01T03:53:17.005Z,1214.00
2023-05-01T03:54:17.001Z,1203.00
2023-05-01T03:55:17.037Z,1209.00
2023-05-01T03:56:17.056Z,1231.00
2023-05-01T03:57:17.051Z,1240.00
2023-05-01T03:58:17.074Z,1222.00
2023-05-01T03:59:17.066Z,1243.00
2023-05-01T04:00:17.057Z,1251.00
2023-05-01T04:01:17.040Z,1294.00
2023-05-01T04:02:17.075Z,1306.00
2023-05-01T04:03:17.124Z,1326.00
2023-05-01T04:04:17.090Z,1312.00
2023-05-01T04:05:17.075Z,1329.00
2023-05-01T04:06:17.191Z,1328.00
2023-05-01T04:07:17.105Z,1346.00
2023-05-01T04:08:17.072Z,1339.00
2023-05-01T04:09:17.068Z,1359.00
2023-05-01T04:10:17.093Z,1376.00
2023-05-01T04:11:17.081Z,1373.00
2023-05-01T04:12:17.110Z,1386.00
2023-05-01T04:13:17.108Z,1394.00
2023-05-01T04:14:17.113Z,1369.00
2023-05-01T04:15:17.110Z,1360.00
2023-05-01T04:16:17.177Z,1366.00
2023-05-01T04:17:17.116Z,1383.00
2023-05-01T04:18:17.157Z,1406.00
2023-05-01T04:19:17.144Z,1385.00
2023-05-01T04:20:17.154Z,1379.00
2023-05-01T04:21:17.148Z,1363.00
2023-05-01T04:22:17.177Z,1383.00
2023-05-01T04:23:17.159Z,1376.00
2023-05-01T04:24:17.205Z,1371.00
2023-05-01T04:25:17.185Z,1351.00
2023-05-01T04:26:17.203Z,1359.00
2023-05-01T04:27:17.186Z,1354.00
2023-05-01T04:28:17.189Z,1340.00
2023-05-01T04:29:17.207Z,1339.00
2023-05-01T04:30:17.242Z,1337.00
2023-05-01T04:31:17.245Z,1353.00
2023-05-01T04:32:17.258Z,1366.00
2023-05-01T04:33:17.238Z,1347.00
2023-05-01T04:34:17.237Z,1354.00
2023-05-01T04:35:17.233Z,1350.00
2023-05-01T04:36:17.260Z,1365.00
2023-05-01T04:37:17.257Z,1358.00
2023-05-01T04:38:17.235Z,1372.00
2023-05-01T04:39:17.241Z,1369.00
2023-05-01T04:40:17.254Z,1402.00
2023-05-01T04:41:17.266Z,1411.00
2023-05-01T04:42:17.296Z,1416.00
2023-05-01T04:43:17.294Z,1406.00
2023-05-01T04:44:17.312Z,1414.00
2023-05-01T04:45:17.311Z,1419.00
2023-05-01T04:46:17.366Z,1434.00
2023-05-01T04:47:17.310Z,1433.00
2023-05-01T04:48:17.356Z,1426.00
2023-05-01T04:49:17.315Z,1441.00
2023-05-01T04:50:17.338Z,1442.00
2023-05-01T04:51:17.377Z,1434.00
2023-05-01T04:52:17.361Z,1435.00
2023-05-01T04:53:17.350Z,1429.00
2023-05-01T04:54:17.375Z,1425.00
2023-05-01T04:55:17.353Z,1428.00
2023-05-01T04:56:17.356Z,1424.00
2023-05-01T04:57:17.364Z,1439.00
2023-05-01T04:58:17.384Z,1432.00
2023-05-01T04:59:17.377Z,1429.00
2023-05-01T05:00:17.393Z,1453.00
2023-05-01T05:01:17.499Z,1452.00
2023-05-01T05:02:17.411Z,1421.00
2023-05-01T05:03:17.463Z,1446.00
2023-05-01T05:04:17.413Z,1464.00
2023-05-01T05:05:17.412Z,1477.00
2023-05-01T05:06:17.437Z,1499.00
2023-05-01T05:07:17.472Z,1501.00
2023-05-01T05:08:17.428Z,1485.00
2023-05-01T05:09:19.974Z,1527.00
2023-05-01T05:10:17.434Z,1516.00
2023-05-01T05:11:17.428Z,1508.00
2023-05-01T05:12:17.419Z,1495.00
2023-05-01T05:13:17.419Z,1464.00
2023-05-01T05:14:17.425Z,1442.00
2023-05-01T05:15:17.388Z,1439.00
2023-05-01T05:16:17.423Z,1429.00
2023-05-01T05:17:17.390Z,1451.00
2023-05-01T05:18:17.424Z,1466.00
2023-05-01T05:19:17.372Z,1467.00
2023-05-01T05:20:17.371Z,1456.00
2023-05-01T05:21:17.342Z,1449.00
2023-05-01T05:22:17.332Z,1463.00
2023-05-01T05:23:17.335Z,1465.00
2023-05-01T05:24:17.322Z,1445.00
2023-05-01T05:25:17.321Z,1445.00
2023-05-01T05:26:17.307Z,1434.00
2023-05-01T05:27:17.333Z,1442.00
2023-05-01T05:28:17.301Z,1463.00
2023-05-01T05:29:17.273Z,1438.00
2023-05-01T05:30:17.306Z,1446.00
2023-05-01T05:31:17.277Z,1446.00
2023-05-01T05:32:17.356Z,1439.00
2023-05-01T05:33:17.283Z,1434.00
2023-05-01T05:34:17.273Z,1431.00
2023-05-01T05:35:17.290Z,1428.00
2023-05-01T05:36:17.270Z,1450.00
2023-05-01T05:37:17.246Z,1445.00
2023-05-01T05:38:17.232Z,1426.00
2023-05-01T05:39:17.214Z,1423.00
2023-05-01T05:40:17.224Z,1432.00
2023-05-01T05:41:17.205Z,1434.00
2023-05-01T05:42:17.203Z,1425.00
2023-05-01T05:43:17.196Z,1433.00
2023-05-01T05:44:17.188Z,1392.00
2023-05-01T05:45:17.193Z,1418.00
2023-05-01T05:46:17.259Z,1406.00
2023-05-01T05:47:17.190Z,1397.00
2023-05-01T05:48:17.193Z,1423.00
2023-05-01T05:49:17.189Z,1411.00
2023-05-01T05:50:17.156Z,1435.00
2023-05-01T05:51:17.168Z,1392.00
2023-05-01T05:52:17.149Z,1388.00
2023-05-01T05:53:17.143Z,1414.00
2023-05-01T05:54:17.123Z,1437.00
2023-05-01T05:55:17.107Z,1403.00
2023-05-01T05:56:17.109Z,1427.00
2023-05-01T05:57:17.124Z,1388.00
2023-05-01T05:58:17.090Z,1402.00
2023-05-01T05:59:17.542Z,1401.00
2023-05-01T06:00:17.092Z,1398.00
2023-05-01T06:01:17.070Z,1412.00
2023-05-01T06:02:17.099Z,1427.00
2023-05-01T06:03:17.190Z,1405.00
2023-05-01T06:04:17.075Z,1387.00
2023-05-01T06:05:17.080Z,1386.00
2023-05-01T06:06:17.095Z,1386.00
2023-05-01T06:07:17.052Z,1402.00
2023-05-01T06:08:17.063Z,1405.00
2023-05-01T06:09:17.027Z,1443.00
2023-05-01T06:10:17.032Z,1407.00
2023-05-01T06:11:17.025Z,1399.00
2023-05-01T06:12:17.021Z,1404.00
2023-05-01T06:13:17.012Z,1411.00
2023-05-01T06:14:17.005Z,1422.00
2023-05-01T06:15:17.072Z,1397.00
2023-05-01T06:16:17.081Z,1395.00
2023-05-01T06:17:17.006Z,1388.00
2023-05-01T06:18:17.012Z,1392.00
2023-05-01T06:19:16.975Z,1381.00
2023-05-01T06:20:16.979Z,1377.00
2023-05-01T06:21:16.969Z,1358.00
2023-05-01T06:22:16.951Z,1353.00
2023-05-01T06:23:16.930Z,1360.00
2023-05-01T06:24:16.938Z,1341.00
2023-05-01T06:25:16.967Z,1372.00
2023-05-01T06:26:16.918Z,1400.00
2023-05-01T06:27:16.920Z,1381.00
2023-05-01T06:28:16.929Z,1382.00
2023-05-01T06:29:16.895Z,1368.00
2023-05-01T06:30:16.914Z,1381.00
2023-05-01T06:31:16.940Z,1396.00
2023-05-01T06:32:16.894Z,1384.00
2023-05-01T06:33:16.952Z,1361.00
2023-05-01T06:34:16.885Z,1343.00
2023-05-01T06:35:16.866Z,1334.00
2023-05-01T06:36:16.852Z,1341.00
2023-05-01T06:37:16.865Z,1336.00
2023-05-01T06:38:16.836Z,1329.00
2023-05-01T06:39:16.858Z,1323.00
2023-05-01T06:40:16.854Z,1322.00
2023-05-01T06:41:16.848Z,1335.00
2023-05-01T06:42:16.831Z,1334.00
2023-05-01T06:43:16.805Z,1332.00
2023-05-01T06:44:16.809Z,1320.00
2023-05-01T06:45:16.797Z,1306.00
2023-05-01T06:46:16.874Z,1294.00
2023-05-01T06:47:16.793Z,1314.00
2023-05-01T06:48:16.786Z,1316.00
2023-05-01T06:49:16.788Z,1309.00
2023-05-01T06:50:16.749Z,1292.00
2023-05-01T06:51:16.745Z,1287.00
2023-05-01T06:52:16.769Z,1286.00
2023-05-01T06:53:16.746Z,1304.00
2023-05-01T06:54:16.740Z,1288.00
2023-05-01T06:55:16.741Z,1295.00
2023-05-01T06:56:16.719Z,1291.00
2023-05-01T06:57:16.715Z,1284.00
2023-05-01T06:58:24.107Z,1281.00
2023-05-01T06:59:17.783Z,1282.00
2023-05-01T07:00:16.743Z,1280.00
2023-05-01T07:01:16.735Z,1283.00
2023-05-01T07:02:16.773Z,1286.00
2023-05-01T07:03:16.736Z,1288.00
2023-05-01T07:04:16.698Z,1292.00
2023-05-01T07:05:16.711Z,1286.00
2023-05-01T07:06:16.756Z,1257.00
2023-05-01T07:07:16.708Z,1269.00
2023-05-01T07:08:16.766Z,1253.00
2023-05-01T07:09:16.837Z,1246.00
2023-05-01T07:10:16.919Z,1266.00
2023-05-01T07:11:16.965Z,1238.00
2023-05-01T07:12:17.037Z,1223.00
2023-05-01T07:13:17.072Z,1223.00
2023-05-01T07:14:17.114Z,1232.00
2023-05-01T07:15:17.177Z,1223.00
2023-05-01T07:16:17.289Z,1211.00
2023-05-01T07:17:17.298Z,1196.00
2023-05-01T07:18:17.328Z,1210.00
2023-05-01T07:19:17.375Z,1192.00
2023-05-01T07:20:17.421Z,1205.00
2023-05-01T07:21:17.480Z,1188.00
2023-05-01T07:22:17.522Z,1173.00
2023-05-01T07:23:17.586Z,1167.00
2023-05-01T07:24:17.639Z,1158.00
2023-05-01T07:25:17.724Z,1163.00
2023-05-01T07:26:17.776Z,1153.00
2023-05-01T07:27:17.832Z,1152.00
2023-05-01T07:28:17.898Z,1153.00
2023-05-01T07:29:17.956Z,1149.00
2023-05-01T07:30:18.009Z,1135.00
2023-05-01T07:31:18.098Z,1131.00
2023-05-01T07:32:18.609Z,1148.00
2023-05-01T07:33:18.255Z,1139.00
2023-05-01T07:34:18.263Z,1126.00
2023-05-01T07:35:18.339Z,1144.00
2023-05-01T07:36:18.377Z,1139.00
2023-05-01T07:37:18.476Z,1143.00
2023-05-01T07:38:18.510Z,1117.00
2023-05-01T07:39:18.554Z,1120.00
2023-05-01T07:40:18.648Z,1129.00
2023-05-01T07:41:18.666Z,1137.00
2023-05-01T07:42:18.744Z,1137.00
2023-05-01T07:43:18.824Z,1142.00
2023-05-01T07:44:18.899Z,1146.00
2023-05-01T07:45:18.930Z,1139.00
2023-05-01T07:46:19.043Z,1155.00
2023-05-01T07:47:19.051Z,1138.00
2023-05-01T07:48:19.120Z,1144.00
2023-05-01T07:49:19.167Z,1136.00
2023-05-01T07:50:19.237Z,1133.00
2023-05-01T07:51:19.314Z,1143.00
2023-05-01T07:52:19.332Z,1129.00
2023-05-01T07:53:19.406Z,1124.00
2023-05-01T07:54:19.455Z,1137.00
2023-05-01T07:55:19.491Z,1136.00
2023-05-01T07:56:19.542Z,1136.00
2023-05-01T07:57:19.599Z,1146.00
2023-05-01T07:58:19.660Z,1142.00
2023-05-01T07:59:19.717Z,1137.00
2023-05-01T08:00:19.803Z,1160.00
2023-05-01T08:01:19.851Z,1177.00
2023-05-01T08:02:19.935Z,1181.00
2023-05-01T08:03:20.289Z,1190.00
2023-05-01T08:04:20.085Z,1191.00
2023-05-01T08:05:20.075Z,1198.00
2023-05-01T08:06:20.208Z,1219.00
2023-05-01T08:07:20.211Z,1216.00
2023-05-01T08:08:20.266Z,1256.00
2023-05-01T08:09:20.338Z,1229.00
2023-05-01T08:10:20.406Z,1262.00
2023-05-01T08:11:20.453Z,1254.00
2023-05-01T08:12:20.536Z,1257.00
2023-05-01T08:13:20.576Z,1271.00
2023-05-01T08:14:20.640Z,1263.00
2023-05-01T08:15:20.698Z,1256.00
2023-05-01T08:16:22.117Z,1257.00
2023-05-01T08:17:20.851Z,1274.00
2023-05-01T08:18:21.388Z,1275.00
2023-05-01T08:19:20.968Z,1273.00
2023-05-01T08:20:21.000Z,1285.00
2023-05-01T08:21:21.037Z,1282.00
2023-05-01T08:22:21.144Z,1281.00
2023-05-01T08:23:21.161Z,1292.00
2023-05-01T08:24:21.223Z,1289.00
2023-05-01T08:25:21.306Z,1288.00
2023-05-01T08:26:22.552Z,1295.00
2023-05-01T08:27:21.388Z,1295.00
2023-05-01T08:28:21.543Z,1282.00
2023-05-01T08:29:21.503Z,1287.00
2023-05-01T08:30:21.531Z,1275.00
2023-05-01T08:31:21.657Z,1276.00
2023-05-01T08:32:21.670Z,1270.00
2023-05-01T08:33:21.686Z,1276.00
2023-05-01T08:34:21.743Z,1289.00
2023-05-01T08:35:21.778Z,1294.00
2023-05-01T08:36:21.828Z,1293.00
2023-05-01T08:37:21.900Z,1298.00
2023-05-01T08:38:21.931Z,1282.00
2023-05-01T08:39:21.976Z,1301.00
2023-05-01T08:40:22.074Z,1307.00
2023-05-01T08:41:22.055Z,1307.00
2023-05-01T08:42:22.113Z,1326.00
2023-05-01T08:43:22.146Z,1337.00
2023-05-01T08:44:22.211Z,1314.00
2023-05-01T08:45:22.250Z,1315.00
2023-05-01T08:46:22.314Z,1304.00
2023-05-01T08:47:22.389Z,1311.00
2023-05-01T08:48:22.373Z,1327.00
2023-05-01T08:49:22.429Z,1330.00
2023-05-01T08:50:22.593Z,1317.00
2023-05-01T08:51:22.522Z,1331.00
2023-05-01T08:52:22.575Z,1317.00
2023-05-01T08:53:22.595Z,1323.00
2023-05-01T08:54:22.647Z,1311.00
2023-05-01T08:55:22.678Z,1316.00
2023-05-01T08:56:22.695Z,1295.00
2023-05-01T08:57:22.749Z,1317.00
2023-05-01T08:58:22.764Z,1301.00
2023-05-01T08:59:22.797Z,1310.00
2023-05-01T09:00:22.978Z,1316.00
2023-05-01T09:01:22.902Z,1300.00
2023-05-01T09:02:23.027Z,1270.00
2023-05-01T09:03:23.111Z,1268.00
2023-05-01T09:04:23.130Z,1271.00
2023-05-01T09:05:23.090Z,1261.00
2023-05-01T09:06:23.157Z,1237.00
2023-05-01T09:07:23.132Z,1229.00
2023-05-01T09:08:23.187Z,1248.00
2023-05-01T09:09:23.228Z,1215.00
2023-05-01T09:10:23.265Z,1216.00
2023-05-01T09:11:23.326Z,1226.00
2023-05-01T09:12:23.360Z,1223.00
2023-05-01T09:13:23.407Z,1219.00
2023-05-01T09:14:23.427Z,1193.00
2023-05-01T09:15:23.466Z,1173.00
2023-05-01T09:16:23.550Z,1202.00
2023-05-01T09:17:23.565Z,1210.00
2023-05-01T09:18:23.602Z,1190.00
2023-05-01T09:19:23.604Z,1176.00
2023-05-01T09:20:23.644Z,1210.00
2023-05-01T09:21:23.676Z,1199.00
2023-05-01T09:22:23.739Z,1189.00
2023-05-01T09:23:23.756Z,1217.00
2023-05-01T09:24:23.790Z,1204.00
2023-05-01T09:25:23.832Z,1183.00
2023-05-01T09:26:23.869Z,1201.00
2023-05-01T09:27:23.934Z,1163.00
2023-05-01T09:28:23.956Z,1178.00
2023-05-01T09:29:23.978Z,1186.00
2023-05-01T09:30:23.996Z,1171.00
2023-05-01T09:31:24.147Z,1206.00
2023-05-01T09:32:24.193Z,1178.00
2023-05-01T09:33:24.212Z,1197.00
2023-05-01T09:34:24.118Z,1155.00
2023-05-01T09:35:24.167Z,1167.00
2023-05-01T09:36:24.194Z,1158.00
2023-05-01T09:37:24.229Z,1188.00
2023-05-01T09:38:24.254Z,1178.00
2023-05-01T09:39:24.285Z,1161.00
2023-05-01T09:40:24.339Z,1183.00
2023-05-01T09:41:24.364Z,1180.00
2023-05-01T09:42:24.397Z,1155.00
2023-05-01T09:43:24.400Z,1158.00
2023-05-01T09:44:24.425Z,1149.00
2023-05-01T09:45:24.457Z,1146.00
2023-05-01T09:46:24.656Z,1167.00
2023-05-01T09:47:24.601Z,1181.00
2023-05-01T09:48:24.536Z,1173.00
2023-05-01T09:49:24.567Z,1176.00
2023-05-01T09:50:24.602Z,1191.00
2023-05-01T09:51:24.644Z,1228.00
2023-05-01T09:52:24.642Z,1153.00
2023-05-01T09:53:24.681Z,1116.00
2023-05-01T09:54:24.717Z,1124.00
2023-05-01T09:55:25.849Z,1138.00
2023-05-01T09:56:24.758Z,1137.00
2023-05-01T09:57:24.767Z,1108.00
2023-05-01T09:58:24.790Z,1122.00
2023-05-01T09:59:24.820Z,1150.00
2023-05-01T10:00:24.868Z,1167.00
2023-05-01T10:01:24.921Z,1149.00
2023-05-01T10:02:25.025Z,1140.00
2023-05-01T10:03:24.949Z,1110.00
2023-05-01T10:04:24.938Z,1135.00
2023-05-01T10:05:24.933Z,1083.00
2023-05-01T10:06:24.988Z,1058.00
2023-05-01T10:07:24.982Z,1110.00
2023-05-01T10:08:25.008Z,1027.00
2023-05-01T10:09:25.006Z,1037.00
2023-05-01T10:10:25.034Z,1069.00
2023-05-01T10:11:25.032Z,1074.00
2023-05-01T10:12:25.071Z,1018.00
2023-05-01T10:13:25.093Z,1019.00
2023-05-01T10:14:25.111Z,1067.00
2023-05-01T10:15:26.983Z,1081.00
2023-05-01T10:16:25.177Z,1027.00
2023-05-01T10:17:25.149Z,1081.00
2023-05-01T10:18:25.227Z,1116.00
2023-05-01T10:19:25.202Z,1143.00
2023-05-01T10:20:25.193Z,1168.00
2023-05-01T10:21:25.215Z,1097.00
2023-05-01T10:22:25.284Z,1016.00
2023-05-01T10:23:25.285Z,1053.00
2023-05-01T10:24:25.256Z,1054.00
2023-05-01T10:25:25.260Z,1081.00
2023-05-01T10:26:25.286Z,1008.00
2023-05-01T10:27:25.289Z,1072.00
2023-05-01T10:28:25.303Z,999.00
2023-05-01T10:29:25.306Z,1008.00
2023-05-01T10:30:25.326Z,984.00
2023-05-01T10:31:25.384Z,961.00
2023-05-01T10:32:25.368Z,966.00
2023-05-01T10:33:25.361Z,994.00
2023-05-01T10:34:27.038Z,993.00
2023-05-01T10:35:25.351Z,1014.00
2023-05-01T10:36:25.343Z,1030.00
2023-05-01T10:37:25.373Z,1053.00
2023-05-01T10:38:25.336Z,1040.00
2023-05-01T10:39:25.346Z,1023.00
2023-05-01T10:40:25.333Z,1059.00
2023-05-01T10:41:25.333Z,874.00
2023-05-01T10:42:25.320Z,969.00
2023-05-01T10:43:25.297Z,967.00
2023-05-01T10:44:25.316Z,935.00
2023-05-01T10:45:25.346Z,980.00
2023-05-01T10:46:25.369Z,1006.00
2023-05-01T10:47:25.415Z,880.00
2023-05-01T10:48:25.277Z,873.00
2023-05-01T10:49:25.279Z,889.00
2023-05-01T10:50:25.262Z,945.00
2023-05-01T10:51:27.557Z,875.00
2023-05-01T10:52:25.233Z,849.00
2023-05-01T10:53:25.247Z,880.00
2023-05-01T10:54:25.219Z,894.00
2023-05-01T10:55:25.209Z,918.00
2023-05-01T10:56:25.214Z,938.00
2023-05-01T10:57:25.232Z,940.00
2023-05-01T10:58:25.236Z,889.00
2023-05-01T10:59:25.204Z,869.00
2023-05-01T11:00:25.196Z,877.00
2023-05-01T11:01:25.213Z,827.00
2023-05-01T11:02:25.291Z,857.00
2023-05-01T11:03:25.196Z,783.00
2023-05-01T11:04:25.152Z,810.00
2023-05-01T11:05:38.015Z,807.00
2023-05-01T11:06:26.406Z,807.00
2023-05-01T11:07:25.168Z,771.00
2023-05-01T11:08:25.134Z,798.00
2023-05-01T11:09:25.145Z,730.00
2023-05-01T11:10:25.132Z,782.00
2023-05-01T11:11:25.123Z,853.00
2023-05-01T11:12:25.124Z,762.00
2023-05-01T11:13:25.114Z,823.00
2023-05-01T11:14:25.090Z,880.00
2023-05-01T11:15:25.108Z,803.00
2023-05-01T11:16:25.185Z,808.00
2023-05-01T11:17:25.185Z,765.00
2023-05-01T11:18:25.112Z,811.00
2023-05-01T11:19:25.067Z,792.00
2023-05-01T11:20:25.066Z,691.00
2023-05-01T11:21:25.069Z,654.00
2023-05-01T11:22:25.068Z,723.00
2023-05-01T11:23:25.064Z,682.00
2023-05-01T11:24:25.059Z,788.00
2023-05-01T11:25:25.041Z,748.00
2023-05-01T11:26:25.043Z,769.00
2023-05-01T11:27:25.013Z,703.00
2023-05-01T11:28:25.040Z,710.00
2023-05-01T11:29:25.015Z,664.00
2023-05-01T11:30:24.998Z,682.00
2023-05-01T11:31:25.019Z,718.00
2023-05-01T11:32:25.091Z,718.00
2023-05-01T11:33:25.011Z,741.00
2023-05-01T11:34:24.965Z,767.00
2023-05-01T11:35:24.979Z,694.00
2023-05-01T11:36:24.973Z,648.00
2023-05-01T11:37:24.969Z,663.00
2023-05-01T11:38:24.966Z,646.00
2023-05-01T11:39:24.941Z,636.00
2023-05-01T11:40:24.930Z,608.00
2023-05-01T11:41:24.950Z,656.00
2023-05-01T11:42:24.978Z,662.00
2023-05-01T11:43:24.928Z,694.00
2023-05-01T11:44:24.915Z,660.00
2023-05-01T11:45:24.891Z,661.00
2023-05-01T11:46:24.998Z,667.00
2023-05-01T11:47:24.989Z,655.00
2023-05-01T11:48:24.916Z,671.00
2023-05-01T11:49:24.938Z,658.00
2023-05-01T11:50:24.933Z,635.00
2023-05-01T11:51:24.934Z,659.00
2023-05-01T11:52:24.938Z,662.00
2023-05-01T11:53:24.937Z,681.00
2023-05-01T11:54:24.958Z,642.00
2023-05-01T11:55:24.938Z,638.00
2023-05-01T11:57:24.976Z,651.00
2023-05-01T11:58:24.955Z,675.00
2023-05-01T11:59:24.963Z,652.00
2023-05-01T12:00:24.988Z,653.00
2023-05-01T12:01:24.982Z,663.00
2023-05-01T12:02:25.086Z,660.00
2023-05-01T12:03:25.096Z,679.00
2023-05-01T12:04:25.121Z,673.00
2023-05-01T12:05:25.035Z,671.00
2023-05-01T12:06:25.128Z,662.00
2023-05-01T12:07:25.047Z,659.00
2023-05-01T12:08:25.062Z,672.00
2023-05-01T12:09:25.067Z,665.00
2023-05-01T12:10:25.097Z,651.00
2023-05-01T12:11:25.101Z,667.00